createdAt,value
2022-08-02T00:01:46.098Z,7.85
2022-08-02T00:04:15.535Z,8.25
2022-08-02T00:06:43.963Z,6.32
2022-08-02T00:09:12.080Z,6.20
2022-08-02T00:11:40.185Z,5.95
2022-08-02T00:14:11.507Z,6.00
2022-08-02T00:16:39.690Z,4.88
2022-08-02T00:19:07.780Z,5.15
2022-08-02T00:21:37.326Z,5.40
2022-08-02T00:24:29.441Z,5.88
2022-08-02T00:26:54.242Z,6.43
2022-08-02T00:29:22.261Z,6.22
2022-08-02T00:31:50.424Z,6.78
2022-08-02T00:34:29.121Z,6.03
2022-08-02T00:37:02.625Z,5.10
2022-08-02T00:39:35.130Z,7.43
2022-08-02T00:42:04.788Z,9.75
2022-08-02T00:44:32.996Z,6.25
2022-08-02T00:47:01.319Z,7.78
2022-08-02T00:49:29.863Z,6.55
2022-08-02T00:51:59.407Z,7.85
2022-08-02T00:54:29.320Z,7.55
2022-08-02T00:56:57.488Z,7.10
2022-08-02T00:59:25.488Z,10.20
2022-08-02T01:01:56.029Z,8.40
2022-08-02T01:04:31.596Z,13.68
2022-08-02T01:07:01.059Z,11.57
2022-08-02T01:09:30.536Z,13.25
2022-08-02T01:12:07.322Z,10.65
2022-08-02T01:14:35.661Z,7.47
2022-08-02T01:17:07.859Z,11.93
2022-08-02T01:19:41.685Z,10.43
2022-08-02T01:22:39.387Z,12.88
2022-08-02T01:25:30.964Z,9.32
2022-08-02T01:28:34.450Z,10.48
2022-08-02T01:31:08.468Z,9.77
2022-08-02T01:33:45.187Z,13.60
2022-08-02T01:36:15.354Z,10.32
2022-08-02T01:38:48.091Z,12.52
2022-08-02T01:41:20.996Z,10.90
2022-08-02T01:43:54.819Z,12.55
2022-08-02T01:46:24.338Z,11.82
2022-08-02T01:48:55.747Z,13.77
2022-08-02T01:51:45.124Z,12.43
2022-08-02T01:54:15.855Z,14.93
2022-08-02T01:56:45.917Z,13.70
2022-08-02T01:59:20.013Z,13.10
2022-08-02T02:01:50.822Z,10.32
2022-08-02T02:04:20.961Z,13.85
2022-08-02T02:06:50.417Z,14.00
2022-08-02T02:09:19.082Z,10.95
2022-08-02T02:12:05.885Z,13.18
2022-08-02T02:14:40.720Z,14.90
2022-08-02T02:18:10.445Z,13.00
2022-08-02T02:20:01.451Z,9.02
2022-08-02T02:22:29.738Z,9.77
2022-08-02T02:24:57.919Z,11.15
2022-08-02T02:27:26.654Z,8.18
2022-08-02T02:29:57.732Z,8.73
2022-08-02T02:32:28.863Z,8.25
2022-08-02T02:34:57.860Z,6.25
2022-08-02T02:37:29.197Z,6.97
2022-08-02T02:39:59.339Z,7.50
2022-08-02T02:42:31.488Z,8.05
2022-08-02T02:45:02.040Z,8.98
2022-08-02T02:47:40.433Z,20.23
2022-08-02T02:50:11.475Z,16.77
2022-08-02T02:52:40.990Z,18.50
2022-08-02T02:55:10.760Z,14.85
2022-08-02T02:57:39.849Z,14.25
2022-08-02T03:00:12.978Z,10.95
2022-08-02T03:02:43.653Z,13.25
2022-08-02T03:05:13.535Z,8.40
2022-08-02T03:07:42.774Z,9.05
2022-08-02T03:10:12.190Z,8.57
2022-08-02T03:12:40.385Z,8.30
2022-08-02T03:15:14.171Z,7.47
2022-08-02T03:17:43.993Z,9.45
2022-08-02T03:20:14.129Z,7.78
2022-08-02T03:22:42.957Z,10.68
2022-08-02T03:25:12.428Z,7.07
2022-08-02T03:27:41.146Z,14.32
2022-08-02T03:30:13.074Z,13.35
2022-08-02T03:32:43.687Z,12.13
2022-08-02T03:35:17.524Z,10.55
2022-08-02T03:37:49.427Z,8.98
2022-08-02T03:40:18.845Z,8.13
2022-08-02T03:42:47.675Z,9.95
2022-08-02T03:45:17.840Z,11.52
2022-08-02T03:47:46.253Z,11.80
2022-08-02T03:50:14.856Z,8.70
2022-08-02T03:52:43.692Z,9.88
2022-08-02T03:55:13.060Z,10.40
2022-08-02T03:57:42.041Z,11.85
2022-08-02T04:00:13.146Z,9.10
2022-08-02T04:02:42.568Z,10.60
2022-08-02T04:05:10.786Z,11.13
2022-08-02T04:08:33.995Z,10.05
2022-08-02T04:10:27.283Z,10.50
2022-08-02T04:12:56.440Z,10.10
2022-08-02T04:15:25.258Z,10.50
2022-08-02T04:18:00.364Z,9.18
2022-08-02T04:20:32.682Z,10.77
2022-08-02T04:23:05.870Z,10.30
2022-08-02T04:25:40.058Z,13.60
2022-08-02T04:30:46.208Z,12.35
2022-08-02T04:33:16.206Z,3.60
2022-08-02T04:35:45.141Z,9.15
2022-08-02T04:38:15.567Z,11.43
2022-08-02T04:40:52.391Z,8.25
2022-08-02T04:43:22.131Z,7.40
2022-08-02T04:45:52.579Z,8.70
2022-08-02T04:48:22.760Z,7.30
2022-08-02T04:50:50.899Z,7.13
2022-08-02T04:53:19.241Z,9.18
2022-08-02T04:55:47.885Z,7.82
2022-08-02T04:58:39.539Z,8.02
2022-08-02T05:01:04.405Z,9.45
2022-08-02T05:03:33.947Z,10.70
2022-08-02T05:06:02.031Z,13.02
2022-08-02T05:08:30.234Z,13.20
2022-08-02T05:10:58.296Z,11.80
2022-08-02T05:13:26.483Z,13.52
2022-08-02T05:15:54.582Z,10.13
2022-08-02T05:18:22.752Z,9.52
2022-08-02T05:20:57.825Z,12.38
2022-08-02T05:23:26.685Z,12.50
2022-08-02T05:25:54.780Z,12.70
2022-08-02T05:28:22.885Z,6.30
2022-08-02T05:30:53.451Z,5.68
2022-08-02T05:33:22.027Z,9.88
2022-08-02T05:35:51.551Z,7.47
2022-08-02T05:38:25.980Z,9.70
2022-08-02T05:43:23.424Z,5.50
2022-08-02T05:45:53.690Z,9.70
2022-08-02T05:48:25.444Z,10.27
2022-08-02T05:51:04.355Z,5.38
2022-08-02T05:53:39.993Z,4.30
2022-08-02T05:56:20.285Z,8.80
2022-08-02T05:58:57.512Z,7.93
2022-08-02T06:01:33.483Z,10.23
2022-08-02T06:04:03.177Z,5.18
2022-08-02T06:06:34.800Z,7.70
2022-08-02T06:09:06.724Z,6.05
2022-08-02T06:11:37.856Z,5.63
2022-08-02T06:14:07.471Z,4.63
2022-08-02T06:16:41.192Z,4.60
2022-08-02T06:19:10.887Z,7.25
2022-08-02T06:22:31.753Z,8.07
2022-08-02T06:24:32.364Z,9.55
2022-08-02T06:27:02.545Z,6.13
2022-08-02T06:29:38.375Z,5.18
2022-08-02T06:32:09.080Z,6.72
2022-08-02T06:34:40.828Z,8.57
2022-08-02T06:37:17.997Z,7.57
2022-08-02T06:39:49.551Z,4.45
2022-08-02T06:42:26.909Z,6.53
2022-08-02T06:44:58.027Z,7.90
2022-08-02T06:47:27.388Z,4.93
2022-08-02T06:49:57.129Z,6.97
2022-08-02T06:52:30.909Z,5.35
2022-08-02T06:55:01.083Z,4.63
2022-08-02T06:57:30.040Z,5.97
2022-08-02T06:59:58.454Z,9.82
2022-08-02T07:02:26.838Z,12.15
2022-08-02T07:04:55.960Z,2.90
2022-08-02T07:07:24.662Z,3.13
2022-08-02T07:09:57.248Z,3.97
2022-08-02T07:12:31.370Z,4.43
2022-08-02T07:14:59.564Z,10.20
2022-08-02T07:17:27.853Z,5.70
2022-08-02T07:19:56.178Z,5.70
2022-08-02T07:22:24.520Z,5.15
2022-08-02T07:24:55.078Z,7.57
2022-08-02T07:27:23.402Z,3.83
2022-08-02T07:29:51.594Z,5.35
2022-08-02T07:32:21.103Z,4.72
2022-08-02T07:34:51.159Z,3.97
2022-08-02T07:37:53.417Z,5.18
2022-08-02T07:40:14.874Z,3.83
2022-08-02T07:42:48.590Z,2.70
2022-08-02T07:45:16.758Z,6.85
2022-08-02T07:47:45.635Z,2.30
2022-08-02T07:50:15.171Z,4.68
2022-08-02T07:52:43.962Z,3.78
2022-08-02T07:55:15.338Z,7.65
2022-08-02T07:57:46.417Z,3.58
2022-08-02T08:00:17.540Z,4.82
2022-08-02T08:02:46.252Z,3.17
2022-08-02T08:05:14.502Z,5.28
2022-08-02T08:07:42.730Z,4.32
2022-08-02T08:10:11.547Z,3.67
2022-08-02T08:12:41.020Z,7.20
2022-08-02T08:15:10.256Z,4.55
2022-08-02T08:17:38.655Z,5.07
2022-08-02T08:20:07.966Z,7.13
2022-08-02T08:22:35.967Z,8.65
2022-08-02T08:25:04.216Z,2.80
2022-08-02T08:27:32.380Z,3.60
2022-08-02T08:30:02.047Z,4.95
2022-08-02T08:32:30.111Z,4.15
2022-08-02T08:34:58.161Z,1.88
2022-08-02T08:37:26.277Z,4.63
2022-08-02T08:39:58.542Z,2.80
2022-08-02T08:42:28.259Z,3.33
2022-08-02T08:44:57.784Z,5.20
2022-08-02T08:47:33.975Z,1.80
2022-08-02T08:50:05.777Z,2.28
2022-08-02T08:52:37.076Z,2.45
2022-08-02T08:55:06.548Z,1.95
2022-08-02T08:57:36.499Z,2.58
2022-08-02T09:00:05.229Z,3.90
2022-08-02T09:02:36.049Z,3.80
2022-08-02T09:05:04.363Z,3.40
2022-08-02T09:07:32.401Z,2.53
2022-08-02T09:10:00.456Z,3.83
2022-08-02T09:12:28.719Z,2.45
2022-08-02T09:14:56.815Z,3.17
2022-08-02T09:17:24.831Z,3.95
2022-08-02T09:20:08.467Z,2.00
2022-08-02T09:22:36.597Z,1.65
2022-08-02T09:25:04.915Z,1.65
2022-08-02T09:27:37.356Z,1.40
2022-08-02T09:30:12.482Z,2.88
2022-08-02T09:32:49.994Z,6.03
2022-08-02T09:36:06.057Z,2.25
2022-08-02T09:38:26.029Z,1.63
2022-08-02T09:40:54.638Z,3.50
2022-08-02T09:43:23.118Z,2.08
2022-08-02T09:45:51.165Z,1.95
2022-08-02T09:48:19.182Z,1.45
2022-08-02T09:50:48.862Z,1.58
2022-08-02T09:53:19.386Z,1.85
2022-08-02T09:55:57.194Z,1.30
2022-08-02T09:58:25.282Z,2.00
2022-08-02T10:00:55.603Z,1.42
2022-08-02T10:03:28.101Z,3.35
2022-08-02T10:06:05.086Z,3.83
2022-08-02T10:08:34.323Z,2.42
2022-08-02T10:11:03.458Z,3.42
2022-08-02T10:13:32.807Z,1.90
2022-08-02T10:16:02.574Z,1.45
2022-08-02T10:18:40.857Z,1.63
2022-08-02T10:21:17.021Z,2.20
2022-08-02T10:23:46.904Z,1.63
2022-08-02T10:26:18.586Z,1.80
2022-08-02T10:28:49.507Z,1.88
2022-08-02T10:31:21.947Z,1.55
2022-08-02T10:33:53.063Z,2.20
2022-08-02T10:36:23.806Z,1.80
2022-08-02T10:38:52.256Z,2.28
2022-08-02T10:41:41.571Z,2.05
2022-08-02T10:44:24.267Z,2.03
2022-08-02T10:46:53.896Z,3.05
2022-08-02T10:49:40.105Z,2.17
2022-08-02T10:52:11.200Z,5.03
2022-08-02T10:54:41.493Z,2.20
2022-08-02T10:57:17.655Z,3.58
2022-08-02T10:59:45.947Z,2.22
2022-08-02T11:02:15.034Z,2.17
2022-08-02T11:05:03.902Z,3.13
2022-08-02T11:07:38.828Z,2.30
2022-08-02T11:10:35.408Z,3.33
2022-08-02T11:13:12.063Z,2.70
2022-08-02T11:16:01.238Z,1.98
2022-08-02T11:19:04.000Z,2.30
2022-08-02T11:21:36.130Z,1.45
2022-08-02T11:24:29.457Z,2.38
2022-08-02T11:26:58.744Z,1.63
2022-08-02T11:29:38.780Z,2.13
2022-08-02T11:32:09.698Z,1.77
2022-08-02T11:34:40.243Z,1.73
2022-08-02T11:37:08.447Z,2.85
2022-08-02T11:39:37.884Z,3.50
2022-08-02T11:42:06.594Z,1.33
2022-08-02T11:44:42.981Z,2.53
2022-08-02T11:47:11.094Z,1.45
2022-08-02T11:49:39.426Z,2.97
2022-08-02T11:52:11.450Z,1.50
2022-08-02T11:54:43.875Z,2.15
2022-08-02T11:57:19.910Z,2.38
2022-08-02T11:59:49.945Z,2.22
2022-08-02T12:02:19.039Z,2.40
2022-08-02T12:04:57.300Z,1.52
2022-08-02T12:07:35.455Z,1.70
2022-08-02T12:10:09.149Z,3.10
2022-08-02T12:12:49.753Z,2.00
2022-08-02T12:15:30.868Z,4.25
2022-08-02T12:18:16.666Z,3.10
2022-08-02T12:20:44.853Z,2.75
2022-08-02T12:23:13.022Z,2.55
2022-08-02T12:25:42.751Z,3.75
2022-08-02T12:28:18.643Z,2.90
2022-08-02T12:30:58.564Z,1.63
2022-08-02T12:33:30.244Z,2.97
2022-08-02T12:35:58.346Z,1.58
2022-08-02T12:38:26.380Z,2.50
2022-08-02T12:40:55.740Z,1.30
2022-08-02T12:43:25.403Z,4.88
2022-08-02T12:45:55.345Z,4.15
2022-08-02T12:48:38.056Z,4.47
2022-08-02T12:51:23.679Z,3.38
2022-08-02T12:54:00.031Z,2.38
2022-08-02T12:56:31.591Z,5.45
2022-08-02T12:58:59.792Z,2.88
2022-08-02T13:01:29.184Z,3.38
2022-08-02T13:04:10.325Z,2.15
2022-08-02T13:06:44.860Z,3.22
2022-08-02T13:09:15.633Z,3.00
2022-08-02T13:11:45.646Z,3.45
2022-08-02T13:14:14.969Z,1.48
2022-08-02T13:16:45.015Z,3.33
2022-08-02T13:19:15.233Z,5.95
2022-08-02T13:22:01.106Z,3.08
2022-08-02T13:24:40.818Z,10.00
2022-08-02T13:27:21.775Z,2.10
2022-08-02T13:29:50.176Z,3.25
2022-08-02T13:32:18.289Z,3.03
2022-08-02T13:34:46.832Z,3.63
2022-08-02T13:37:15.348Z,2.53
2022-08-02T13:39:55.337Z,3.47
2022-08-02T13:42:33.384Z,3.25
2022-08-02T13:45:11.714Z,1.85
2022-08-02T13:48:03.901Z,2.08
2022-08-02T13:50:30.369Z,1.40
2022-08-02T13:52:58.562Z,1.45
2022-08-02T13:55:26.653Z,1.75
2022-08-02T13:57:56.072Z,2.13
2022-08-02T14:00:35.348Z,3.05
2022-08-02T14:03:07.040Z,1.95
2022-08-02T14:05:47.169Z,5.18
2022-08-02T14:08:17.144Z,3.20
2022-08-02T14:10:45.608Z,2.08
2022-08-02T14:13:15.084Z,2.35
2022-08-02T14:15:43.665Z,4.22
2022-08-02T14:18:11.831Z,1.50
2022-08-02T14:20:39.873Z,1.00
2022-08-02T14:23:07.961Z,1.27
2022-08-02T14:25:36.255Z,4.10
2022-08-02T14:28:04.825Z,3.30
2022-08-02T14:30:34.492Z,2.38
2022-08-02T14:33:03.401Z,1.98
2022-08-02T14:35:31.750Z,5.95
2022-08-02T14:37:59.857Z,2.47
2022-08-02T14:40:31.702Z,2.85
2022-08-02T14:45:40.576Z,1.42
2022-08-02T14:48:16.873Z,2.28
2022-08-02T14:50:44.855Z,1.70
2022-08-02T14:53:13.209Z,3.90
2022-08-02T14:55:42.710Z,1.10
2022-08-02T14:58:11.345Z,2.28
2022-08-02T15:00:41.168Z,1.00
2022-08-02T15:03:10.498Z,1.40
2022-08-02T15:05:40.359Z,1.30
2022-08-02T15:08:08.676Z,3.50
2022-08-02T15:10:36.958Z,1.15
2022-08-02T15:13:05.049Z,1.17
2022-08-02T15:15:40.582Z,2.35
2022-08-02T15:18:12.201Z,2.20
2022-08-02T15:20:43.941Z,3.05
2022-08-02T15:23:24.801Z,3.22
2022-08-02T15:26:02.968Z,1.42
2022-08-02T15:28:31.505Z,1.98
2022-08-02T15:31:00.271Z,0.95
2022-08-02T15:33:28.256Z,2.15
2022-08-02T15:36:00.631Z,1.85
2022-08-02T15:38:28.600Z,2.50
2022-08-02T15:40:59.505Z,1.08
2022-08-02T15:43:27.590Z,3.15
2022-08-02T15:45:55.760Z,2.40
2022-08-02T15:48:23.895Z,2.25
2022-08-02T15:50:51.931Z,8.18
2022-08-02T15:53:21.285Z,3.70
2022-08-02T15:55:52.052Z,4.45
2022-08-02T15:58:22.532Z,3.97
2022-08-02T16:00:50.998Z,6.50
2022-08-02T16:03:19.260Z,5.22
2022-08-02T16:05:47.306Z,2.85
2022-08-02T16:08:15.396Z,4.65
2022-08-02T16:10:45.265Z,1.67
2022-08-02T16:13:30.764Z,3.60
2022-08-02T16:15:59.135Z,4.97
2022-08-02T16:18:27.279Z,3.58
2022-08-02T16:20:55.349Z,4.15
2022-08-02T16:23:59.592Z,1.48
2022-08-02T16:26:16.967Z,2.28
2022-08-02T16:28:45.276Z,3.38
2022-08-02T16:31:13.269Z,4.28
2022-08-02T16:33:41.352Z,4.97
2022-08-02T16:36:09.456Z,4.15
2022-08-02T16:38:37.512Z,2.30
2022-08-02T16:41:06.797Z,5.28
2022-08-02T16:43:36.604Z,2.75
2022-08-02T16:46:04.840Z,2.03
2022-08-02T16:48:38.032Z,5.38
2022-08-02T16:51:13.691Z,4.47
2022-08-02T16:53:59.247Z,5.10
2022-08-02T16:56:28.898Z,3.75
2022-08-02T16:59:00.130Z,4.28
2022-08-02T17:02:02.730Z,4.88
2022-08-02T17:04:16.955Z,3.45
2022-08-02T17:06:47.656Z,3.05
2022-08-02T17:10:03.255Z,3.00
2022-08-02T17:12:13.513Z,18.08
2022-08-02T17:14:55.394Z,7.20
2022-08-02T17:17:34.210Z,3.92
2022-08-02T17:20:02.947Z,10.88
2022-08-02T17:22:31.079Z,9.30
2022-08-02T17:25:05.576Z,4.35
2022-08-02T17:27:39.099Z,5.57
2022-08-02T17:30:10.825Z,6.32
2022-08-02T17:32:39.389Z,5.72
2022-08-02T17:35:10.053Z,6.82
2022-08-02T17:37:41.764Z,3.78
2022-08-02T17:40:11.077Z,4.82
2022-08-02T17:42:39.464Z,6.50
2022-08-02T17:45:25.248Z,5.50
2022-08-02T17:48:03.772Z,6.45
2022-08-02T17:50:42.189Z,7.72
2022-08-02T17:53:17.613Z,8.88
2022-08-02T17:55:45.736Z,11.35
2022-08-02T17:58:19.323Z,5.77
2022-08-02T18:00:48.775Z,9.27
2022-08-02T18:03:18.359Z,5.88
2022-08-02T18:05:53.103Z,6.18
2022-08-02T18:08:23.919Z,8.13
2022-08-02T18:10:52.559Z,10.68
2022-08-02T18:13:20.716Z,8.98
2022-08-02T18:15:52.351Z,6.82
2022-08-02T18:18:29.281Z,10.57
2022-08-02T18:20:58.785Z,6.93
2022-08-02T18:23:49.397Z,7.25
2022-08-02T18:26:17.979Z,8.35
2022-08-02T18:28:49.166Z,6.97
2022-08-02T18:31:22.573Z,7.43
2022-08-02T18:34:00.312Z,12.82
2022-08-02T18:36:30.793Z,9.75
2022-08-02T18:39:00.134Z,6.85
2022-08-02T18:41:37.943Z,5.95
2022-08-02T18:44:06.649Z,6.18
2022-08-02T18:46:36.442Z,6.10
2022-08-02T18:49:14.931Z,7.30
2022-08-02T18:51:43.929Z,5.30
2022-08-02T18:54:12.004Z,5.30
2022-08-02T18:56:40.178Z,6.03
2022-08-02T18:59:15.332Z,5.82
2022-08-02T19:01:51.047Z,6.82
2022-08-02T19:04:26.942Z,4.20
2022-08-02T19:07:01.686Z,7.10
2022-08-02T19:09:35.655Z,9.70
2022-08-02T19:12:04.474Z,7.10
2022-08-02T19:14:32.603Z,11.07
2022-08-02T19:17:15.914Z,12.15
2022-08-02T19:19:51.286Z,7.50
2022-08-02T19:22:20.353Z,6.53
2022-08-02T19:24:51.773Z,5.20
2022-08-02T19:27:26.030Z,7.47
2022-08-02T19:29:59.915Z,10.88
2022-08-02T19:32:42.482Z,5.57
2022-08-02T19:35:30.542Z,5.60
2022-08-02T19:38:08.739Z,7.45
2022-08-02T19:40:38.710Z,5.90
2022-08-02T19:44:23.585Z,7.45
2022-08-02T19:45:56.835Z,8.35
2022-08-02T19:48:28.101Z,8.50
2022-08-02T19:51:00.785Z,4.30
2022-08-02T19:53:48.094Z,5.28
2022-08-02T19:56:21.113Z,5.57
2022-08-02T19:58:51.563Z,8.27
2022-08-02T20:01:25.332Z,8.95
2022-08-02T20:03:57.980Z,6.47
2022-08-02T20:06:29.560Z,10.32
2022-08-02T20:09:00.947Z,6.43
2022-08-02T20:11:34.811Z,6.88
2022-08-02T20:14:04.726Z,6.47
2022-08-02T20:16:33.360Z,6.88
2022-08-02T20:19:05.604Z,9.77
2022-08-02T20:21:37.622Z,6.95
2022-08-02T20:24:09.839Z,5.40
2022-08-02T20:26:47.244Z,6.47
2022-08-02T20:29:17.534Z,10.63
2022-08-02T20:32:05.116Z,11.27
2022-08-02T20:34:36.373Z,9.93
2022-08-02T20:37:59.089Z,7.65
2022-08-02T20:39:53.733Z,10.00
2022-08-02T20:42:23.011Z,7.53
2022-08-02T20:44:54.522Z,7.07
2022-08-02T20:47:27.718Z,8.07
2022-08-02T20:50:15.714Z,8.05
2022-08-02T20:52:45.218Z,10.35
2022-08-02T20:55:17.366Z,5.95
2022-08-02T20:58:00.429Z,7.53
2022-08-02T21:00:30.145Z,8.70
2022-08-02T21:02:58.280Z,7.03
2022-08-02T21:05:54.400Z,9.18
2022-08-02T21:08:21.407Z,10.02
2022-08-02T21:10:52.713Z,6.57
2022-08-02T21:13:24.097Z,8.90
2022-08-02T21:15:53.555Z,6.72
2022-08-02T21:18:24.454Z,10.57
2022-08-02T21:20:58.410Z,7.47
2022-08-02T21:23:26.523Z,9.63
2022-08-02T21:25:58.047Z,7.20
2022-08-02T21:28:43.882Z,7.88
2022-08-02T21:31:15.628Z,6.47
2022-08-02T21:33:56.708Z,7.10
2022-08-02T21:36:30.848Z,11.75
2022-08-02T21:39:05.150Z,8.27
2022-08-02T21:41:39.373Z,10.88
2022-08-02T21:44:15.922Z,7.60
2022-08-02T21:46:45.519Z,10.52
2022-08-02T21:49:14.399Z,7.63
2022-08-02T21:51:49.729Z,6.75
2022-08-02T21:54:20.905Z,6.78
2022-08-02T21:56:52.209Z,8.80
2022-08-02T21:59:26.344Z,9.00
2022-08-02T22:01:56.771Z,7.57
2022-08-02T22:04:25.975Z,9.32
2022-08-02T22:06:55.868Z,11.52
2022-08-02T22:09:43.568Z,10.43
2022-08-02T22:12:17.804Z,8.77
2022-08-02T22:17:50.534Z,12.30
2022-08-02T22:20:15.564Z,11.80
2022-08-02T22:22:48.325Z,11.93
2022-08-02T22:25:26.942Z,9.00
2022-08-02T22:28:38.592Z,15.80
2022-08-02T22:30:54.045Z,18.80
2022-08-02T22:33:42.480Z,18.55
2022-08-02T22:36:15.902Z,13.30
2022-08-02T22:38:45.820Z,20.73
2022-08-02T22:41:14.786Z,18.25
2022-08-02T22:43:43.678Z,13.68
2022-08-02T22:46:15.373Z,12.65
2022-08-02T22:48:44.793Z,12.13
2022-08-02T22:51:13.769Z,11.93
2022-08-02T22:53:42.195Z,12.25
2022-08-02T22:56:13.123Z,13.55
2022-08-02T23:01:31.694Z,9.55
2022-08-02T23:03:59.803Z,7.43
2022-08-02T23:06:27.980Z,9.02
2022-08-02T23:08:56.074Z,14.30
2022-08-02T23:11:25.529Z,10.60
2022-08-02T23:13:53.628Z,10.65
2022-08-02T23:16:39.603Z,12.23
2022-08-02T23:19:25.045Z,16.65
2022-08-02T23:22:02.692Z,11.85
2022-08-02T23:24:33.417Z,14.82
2022-08-02T23:27:03.215Z,14.00
2022-08-02T23:29:31.258Z,13.27
2022-08-02T23:31:59.386Z,11.38
2022-08-02T23:34:28.821Z,16.10
2022-08-02T23:36:56.912Z,17.15
2022-08-02T23:39:25.021Z,13.82
2022-08-02T23:41:55.083Z,10.60
2022-08-02T23:44:25.202Z,11.38
2022-08-02T23:46:54.517Z,13.13
2022-08-02T23:49:23.547Z,12.73
2022-08-02T23:51:52.317Z,11.32
2022-08-02T23:54:21.024Z,14.23
2022-08-02T23:56:49.041Z,11.90
2022-08-02T23:59:17.232Z,7.40
